Time;durP1;ratioP1;P1;durP2;ratioP2;P2;SDS_P1;SDS_P2;PMS_P1;PMS_P2;Temp;Humidity;BMP_temperature;BMP_pressure;BME280_temperature;BME280_humidity;BME280_pressure;Samples;Min_cycle;Max_cycle;Signal;HPM_P1;HPM_P2
2024/01/03 00:00:38;;;;;;;5.10;1.42;;;;;;;;;;7390323;19;20087;-78
2024/01/03 00:03:04;;;;;;;1.85;1.20;;;;;;;;;;7388986;19;20054;-78
2024/01/03 00:05:41;;;;;;;3.92;1.90;;;;;;;;;;7421493;19;20014;-77
2024/01/03 00:08:27;;;;;;;2.67;1.30;;;;;;;;;;7393313;19;20038;-77
2024/01/03 00:10:55;;;;;;;1.90;1.02;;;;;;;;;;7389444;19;20010;-77
2024/01/03 00:13:29;;;;;;;4.18;1.73;;;;;;;;;;7386056;19;20006;-77
2024/01/03 00:16:06;;;;;;;2.47;1.30;;;;;;;;;;7385964;19;20019;-77
2024/01/03 00:18:34;;;;;;;4.05;1.40;;;;;;;;;;7380029;19;19998;-76
2024/01/03 00:21:01;;;;;;;3.72;1.38;;;;;;;;;;7381708;19;19998;-79
2024/01/03 00:23:38;;;;;;;2.83;1.17;;;;;;;;;;7407835;19;20019;-77
2024/01/03 00:26:06;;;;;;;5.10;1.45;;;;;;;;;;7384854;19;20024;-77
2024/01/03 00:28:34;;;;;;;3.28;1.20;;;;;;;;;;7386367;19;20140;-78
2024/01/03 00:31:00;;;;;;;2.90;1.20;;;;;;;;;;7385863;19;20090;-77
2024/01/03 00:33:26;;;;;;;2.85;1.13;;;;;;;;;;7388292;19;20011;-77
2024/01/03 00:35:52;;;;;;;3.20;1.25;;;;;;;;;;7409592;19;20111;-77
2024/01/03 00:38:18;;;;;;;3.50;1.20;;;;;;;;;;7386763;19;20006;-77
2024/01/03 00:41:02;;;;;;;3.42;1.50;;;;;;;;;;7381852;19;20007;-80
2024/01/03 00:43:28;;;;;;;4.88;1.50;;;;;;;;;;7383550;19;19995;-77
2024/01/03 00:45:54;;;;;;;3.40;1.30;;;;;;;;;;7387832;19;20022;-77
2024/01/03 00:48:19;;;;;;;5.60;1.40;;;;;;;;;;7380550;19;20011;-78
2024/01/03 00:50:44;;;;;;;5.13;1.42;;;;;;;;;;7404819;19;20007;-78
2024/01/03 00:53:12;;;;;;;3.22;1.15;;;;;;;;;;7390773;19;20027;-79
2024/01/03 00:55:39;;;;;;;5.05;1.48;;;;;;;;;;7389645;19;20015;-79
2024/01/03 00:58:06;;;;;;;2.15;1.10;;;;;;;;;;7390393;19;20007;-79
2024/01/03 01:00:38;;;;;;;3.55;1.35;;;;;;;;;;7401290;19;20014;-81
2024/01/03 01:03:05;;;;;;;4.30;1.35;;;;;;;;;;7404190;19;20027;-81
2024/01/03 01:05:34;;;;;;;4.13;1.70;;;;;;;;;;7418642;19;20015;-80
2024/01/03 01:07:59;;;;;;;6.75;1.48;;;;;;;;;;7397271;19;20003;-79
2024/01/03 01:10:25;;;;;;;7.68;1.48;;;;;;;;;;7392825;19;20013;-79
2024/01/03 01:12:50;;;;;;;4.93;1.20;;;;;;;;;;7399188;19;20027;-79
2024/01/03 01:15:15;;;;;;;5.70;1.33;;;;;;;;;;7399485;19;20011;-79
2024/01/03 01:17:41;;;;;;;4.43;1.42;;;;;;;;;;7423331;19;20006;-79
2024/01/03 01:20:07;;;;;;;5.50;1.30;;;;;;;;;;7400409;19;20030;-79
2024/01/03 01:22:33;;;;;;;4.35;1.50;;;;;;;;;;7403841;19;20007;-79
2024/01/03 01:24:58;;;;;;;6.05;1.50;;;;;;;;;;7394956;19;20010;-79
2024/01/03 01:27:24;;;;;;;4.43;1.67;;;;;;;;;;7394944;19;20003;-79
2024/01/03 01:29:49;;;;;;;4.07;1.05;;;;;;;;;;7420881;19;20030;-79
2024/01/03 01:32:14;;;;;;;4.72;1.60;;;;;;;;;;7398485;19;19998;-80
2024/01/03 01:34:40;;;;;;;3.95;1.40;;;;;;;;;;7399836;19;20038;-79
2024/01/03 01:37:05;;;;;;;4.55;1.20;;;;;;;;;;7396366;19;20035;-79
2024/01/03 01:39:31;;;;;;;3.20;1.45;;;;;;;;;;7396832;19;20006;-80
2024/01/03 01:41:56;;;;;;;4.63;1.30;;;;;;;;;;7408900;19;20602;-80
2024/01/03 01:44:22;;;;;;;3.72;1.30;;;;;;;;;;7410589;19;20021;-79
2024/01/03 01:46:50;;;;;;;2.55;1.13;;;;;;;;;;7393597;19;19999;-79
2024/01/03 01:49:18;;;;;;;3.30;1.10;;;;;;;;;;7393986;19;20013;-79
2024/01/03 01:51:45;;;;;;;1.88;1.10;;;;;;;;;;7392911;19;20066;-79
2024/01/03 01:54:12;;;;;;;2.60;0.95;;;;;;;;;;7393605;19;20221;-80
2024/01/03 01:56:39;;;;;;;3.72;1.23;;;;;;;;;;7432392;19;19991;-80
2024/01/03 01:59:06;;;;;;;1.95;1.02;;;;;;;;;;7391550;19;19998;-79
2024/01/03 02:01:34;;;;;;;2.42;1.33;;;;;;;;;;7386334;19;20009;-80
2024/01/03 02:04:02;;;;;;;3.28;1.17;;;;;;;;;;7387808;19;19998;-80
2024/01/03 02:06:27;;;;;;;3.65;1.05;;;;;;;;;;7391206;19;20003;-80
2024/01/03 02:08:53;;;;;;;2.42;1.10;;;;;;;;;;7413206;19;20047;-80
2024/01/03 02:11:18;;;;;;;4.03;1.27;;;;;;;;;;7392337;19;20038;-80
2024/01/03 02:13:44;;;;;;;2.17;1.10;;;;;;;;;;7389345;19;19999;-80
2024/01/03 02:16:09;;;;;;;3.10;0.98;;;;;;;;;;7392272;19;20003;-80
2024/01/03 02:18:35;;;;;;;4.55;1.25;;;;;;;;;;7391699;19;19999;-79
2024/01/03 02:21:02;;;;;;;4.60;1.40;;;;;;;;;;7396451;19;19991;-79
2024/01/03 02:23:27;;;;;;;2.42;1.10;;;;;;;;;;7425984;19;20013;-80
2024/01/03 02:25:52;;;;;;;7.70;1.85;;;;;;;;;;7392588;19;20011;-79
2024/01/03 02:28:18;;;;;;;6.20;1.42;;;;;;;;;;7390761;19;20015;-80
2024/01/03 02:30:44;;;;;;;5.38;1.33;;;;;;;;;;7390997;19;19998;-79
2024/01/03 02:33:11;;;;;;;3.20;1.38;;;;;;;;;;7389791;19;20053;-79
2024/01/03 02:35:37;;;;;;;8.35;1.50;;;;;;;;;;7419966;19;20034;-79
2024/01/03 02:38:04;;;;;;;6.95;1.50;;;;;;;;;;7392452;19;19999;-79
2024/01/03 02:40:33;;;;;;;5.30;1.67;;;;;;;;;;7395832;19;20011;-80
2024/01/03 02:42:59;;;;;;;5.03;1.63;;;;;;;;;;7395667;19;20006;-80
2024/01/03 02:45:24;;;;;;;4.80;1.40;;;;;;;;;;7386573;19;20010;-79
2024/01/03 02:47:49;;;;;;;7.75;1.98;;;;;;;;;;7409794;19;19998;-79
2024/01/03 02:50:15;;;;;;;9.20;1.80;;;;;;;;;;7406039;19;20014;-80
2024/01/03 02:52:41;;;;;;;7.47;1.95;;;;;;;;;;7398192;19;20018;-79
2024/01/03 02:55:06;;;;;;;9.27;1.90;;;;;;;;;;7386829;19;20070;-79
2024/01/03 02:57:32;;;;;;;10.38;2.75;;;;;;;;;;7381622;19;20090;-79
2024/01/03 02:59:57;;;;;;;7.40;1.90;;;;;;;;;;7391488;19;20006;-80
2024/01/03 03:02:24;;;;;;;7.60;1.88;;;;;;;;;;7426101;19;20008;-79
2024/01/03 03:04:49;;;;;;;9.38;1.92;;;;;;;;;;7398092;19;20009;-79
2024/01/03 03:07:14;;;;;;;8.48;2.08;;;;;;;;;;7387715;19;20046;-79
2024/01/03 03:09:41;;;;;;;7.65;1.90;;;;;;;;;;7380922;19;20019;-79
2024/01/03 03:12:08;;;;;;;11.40;2.35;;;;;;;;;;7382578;19;20025;-80
2024/01/03 03:14:33;;;;;;;11.00;1.90;;;;;;;;;;7402855;19;20337;-79
2024/01/03 03:16:58;;;;;;;8.02;2.00;;;;;;;;;;7379273;19;20016;-80
2024/01/03 03:19:24;;;;;;;9.35;2.00;;;;;;;;;;7377671;19;20069;-79
2024/01/03 03:21:49;;;;;;;7.43;1.70;;;;;;;;;;7379370;19;20054;-80
2024/01/03 03:24:15;;;;;;;9.07;1.80;;;;;;;;;;7381117;19;20010;-80
2024/01/03 03:26:40;;;;;;;6.97;1.90;;;;;;;;;;7407300;19;20033;-80
2024/01/03 03:29:06;;;;;;;5.43;1.63;;;;;;;;;;7381945;19;20023;-79
2024/01/03 03:31:32;;;;;;;8.32;1.55;;;;;;;;;;7383851;19;20013;-80
2024/01/03 03:33:57;;;;;;;8.20;1.70;;;;;;;;;;7389639;19;20050;-79
2024/01/03 03:36:22;;;;;;;5.55;1.58;;;;;;;;;;7386404;19;20006;-79
2024/01/03 03:38:48;;;;;;;6.22;1.70;;;;;;;;;;7424748;19;20003;-79
2024/01/03 03:41:13;;;;;;;11.02;1.50;;;;;;;;;;7398466;19;20454;-79
2024/01/03 03:43:40;;;;;;;11.07;1.70;;;;;;;;;;7381908;19;20023;-79
2024/01/03 03:46:06;;;;;;;8.98;1.67;;;;;;;;;;7387916;19;20007;-79
2024/01/03 03:48:32;;;;;;;7.68;1.73;;;;;;;;;;7392283;19;20047;-79
2024/01/03 03:51:00;;;;;;;7.43;1.70;;;;;;;;;;7394364;19;19998;-79
2024/01/03 03:53:26;;;;;;;7.45;1.75;;;;;;;;;;7406105;19;20019;-78
2024/01/03 03:55:51;;;;;;;6.93;1.55;;;;;;;;;;7389404;19;20070;-81
2024/01/03 03:58:16;;;;;;;6.90;1.40;;;;;;;;;;7388288;19;20063;-78
2024/01/03 04:00:42;;;;;;;9.68;1.90;;;;;;;;;;7392214;19;20015;-79
2024/01/03 04:03:08;;;;;;;8.52;1.92;;;;;;;;;;7392488;19;20005;-79
2024/01/03 04:05:37;;;;;;;8.60;1.80;;;;;;;;;;7410411;19;20007;-78
2024/01/03 04:08:03;;;;;;;8.57;1.67;;;;;;;;;;7381268;19;20006;-79
2024/01/03 04:10:29;;;;;;;11.50;2.28;;;;;;;;;;7390861;19;20010;-79
2024/01/03 04:12:57;;;;;;;9.02;3.13;;;;;;;;;;7390512;19;20043;-79
2024/01/03 04:15:24;;;;;;;9.23;2.45;;;;;;;;;;7388619;19;19999;-80
2024/01/03 04:17:49;;;;;;;11.45;1.73;;;;;;;;;;7412431;19;20006;-79
2024/01/03 04:20:15;;;;;;;8.35;1.67;;;;;;;;;;7392997;19;20058;-83
2024/01/03 04:22:43;;;;;;;8.23;2.05;;;;;;;;;;7390374;19;20006;-80
2024/01/03 04:25:08;;;;;;;10.10;1.90;;;;;;;;;;7389501;19;20020;-78
2024/01/03 04:27:34;;;;;;;7.63;1.90;;;;;;;;;;7392617;19;20006;-79
2024/01/03 04:29:59;;;;;;;8.20;1.73;;;;;;;;;;7395490;19;20026;-79
2024/01/03 04:32:25;;;;;;;9.85;2.13;;;;;;;;;;7413616;19;20047;-79
2024/01/03 04:34:50;;;;;;;8.02;1.65;;;;;;;;;;7391318;19;20013;-80
2024/01/03 04:37:15;;;;;;;10.55;2.58;;;;;;;;;;7406672;19;19999;-79
2024/01/03 04:39:41;;;;;;;13.25;2.60;;;;;;;;;;7408777;19;20010;-79
2024/01/03 04:42:06;;;;;;;8.55;1.83;;;;;;;;;;7400925;19;20043;-79
2024/01/03 04:44:33;;;;;;;8.75;1.70;;;;;;;;;;7418359;19;19999;-80
2024/01/03 04:46:58;;;;;;;10.32;2.20;;;;;;;;;;7389986;19;20039;-79
2024/01/03 04:49:24;;;;;;;8.65;1.88;;;;;;;;;;7391062;19;20010;-80
2024/01/03 04:51:49;;;;;;;13.93;2.72;;;;;;;;;;7391473;19;20006;-79
2024/01/03 04:54:14;;;;;;;7.55;1.90;;;;;;;;;;7392403;19;20006;-80
2024/01/03 04:56:40;;;;;;;13.52;2.50;;;;;;;;;;7416030;19;20002;-80
2024/01/03 04:59:07;;;;;;;7.97;1.90;;;;;;;;;;7392105;19;20034;-79
2024/01/03 05:01:32;;;;;;;14.90;2.45;;;;;;;;;;7393435;19;20014;-79
2024/01/03 05:03:58;;;;;;;14.40;2.30;;;;;;;;;;7394444;19;19998;-79
2024/01/03 05:06:23;;;;;;;8.65;2.17;;;;;;;;;;7398464;19;20010;-79
2024/01/03 05:08:48;;;;;;;11.80;2.17;;;;;;;;;;7420772;19;20006;-79
2024/01/03 05:11:14;;;;;;;9.60;2.10;;;;;;;;;;7401488;19;20002;-79
2024/01/03 05:13:39;;;;;;;10.85;2.17;;;;;;;;;;7411620;19;19999;-80
2024/01/03 05:16:05;;;;;;;9.95;2.05;;;;;;;;;;7412897;19;20558;-80
2024/01/03 05:18:30;;;;;;;12.02;2.15;;;;;;;;;;7410355;19;19995;-80
2024/01/03 05:20:56;;;;;;;14.02;2.47;;;;;;;;;;7433279;19;19995;-80
2024/01/03 05:23:21;;;;;;;12.15;2.30;;;;;;;;;;7415517;19;19995;-77
2024/01/03 05:25:47;;;;;;;10.07;2.70;;;;;;;;;;7411708;19;20010;-79
2024/01/03 05:28:12;;;;;;;8.77;2.03;;;;;;;;;;7409536;19;19995;-79
2024/01/03 05:30:40;;;;;;;9.35;2.22;;;;;;;;;;7409237;19;20002;-79
2024/01/03 05:33:05;;;;;;;13.93;2.33;;;;;;;;;;7409714;19;20011;-79
2024/01/03 05:35:31;;;;;;;15.15;2.50;;;;;;;;;;7432122;19;19995;-79
2024/01/03 05:37:56;;;;;;;13.13;2.17;;;;;;;;;;7407252;19;20010;-79
2024/01/03 05:40:22;;;;;;;13.65;2.40;;;;;;;;;;7406926;19;20017;-79
2024/01/03 05:42:47;;;;;;;10.88;2.42;;;;;;;;;;7404831;19;20026;-78
2024/01/03 05:45:12;;;;;;;10.23;2.15;;;;;;;;;;7407946;19;20015;-80
2024/01/03 05:47:39;;;;;;;19.45;2.72;;;;;;;;;;7431047;19;20001;-80
2024/01/03 05:50:05;;;;;;;8.98;2.65;;;;;;;;;;7387323;19;20006;-80
2024/01/03 05:52:34;;;;;;;14.43;2.53;;;;;;;;;;7387638;19;20010;-80
2024/01/03 05:55:00;;;;;;;17.17;2.75;;;;;;;;;;7395151;19;20013;-80
2024/01/03 05:57:26;;;;;;;13.10;2.72;;;;;;;;;;7394985;19;20015;-80
2024/01/03 05:59:51;;;;;;;11.18;2.55;;;;;;;;;;7418483;19;20013;-80
2024/01/03 06:02:17;;;;;;;8.65;2.63;;;;;;;;;;7394069;19;20010;-79
2024/01/03 06:04:44;;;;;;;15.43;3.10;;;;;;;;;;7394054;19;20019;-81
2024/01/03 06:07:10;;;;;;;9.93;2.00;;;;;;;;;;7395993;19;20027;-80
2024/01/03 06:09:36;;;;;;;11.15;2.40;;;;;;;;;;7396823;19;20018;-79
2024/01/03 06:12:01;;;;;;;12.10;2.70;;;;;;;;;;7391940;19;20297;-80
2024/01/03 06:14:27;;;;;;;11.30;2.47;;;;;;;;;;7404699;19;20005;-79
2024/01/03 06:16:52;;;;;;;17.92;2.22;;;;;;;;;;7382811;19;20030;-79
2024/01/03 06:19:19;;;;;;;10.18;2.22;;;;;;;;;;7391485;19;20130;-80
2024/01/03 06:21:44;;;;;;;17.23;2.53;;;;;;;;;;7389549;19;20014;-80
2024/01/03 06:24:09;;;;;;;14.43;2.45;;;;;;;;;;7376380;19;20003;-72
2024/01/03 06:26:35;;;;;;;14.82;2.80;;;;;;;;;;7374549;19;20014;-72
2024/01/03 06:29:01;;;;;;;11.02;2.10;;;;;;;;;;7361735;19;20002;-72
2024/01/03 06:31:26;;;;;;;13.63;3.30;;;;;;;;;;7367992;19;20112;-72
2024/01/03 06:33:51;;;;;;;13.43;2.45;;;;;;;;;;7366699;19;20031;-72
2024/01/03 06:36:17;;;;;;;9.55;2.45;;;;;;;;;;7367744;19;20044;-72
2024/01/03 06:38:42;;;;;;;11.32;3.60;;;;;;;;;;7387554;19;20006;-72
2024/01/03 06:41:09;;;;;;;6.05;2.15;;;;;;;;;;7394900;19;20017;-79
2024/01/03 06:43:34;;;;;;;8.70;1.98;;;;;;;;;;7386065;19;20410;-79
2024/01/03 06:46:02;;;;;;;7.57;1.67;;;;;;;;;;7387239;19;20116;-79
2024/01/03 06:48:30;;;;;;;12.75;2.60;;;;;;;;;;7385208;19;20010;-79
2024/01/03 06:50:56;;;;;;;11.13;2.10;;;;;;;;;;7415975;19;20018;-79
2024/01/03 06:53:22;;;;;;;9.43;2.15;;;;;;;;;;7399621;19;20094;-79
2024/01/03 06:55:47;;;;;;;8.50;2.00;;;;;;;;;;7404058;19;19994;-79
2024/01/03 06:58:12;;;;;;;10.15;2.08;;;;;;;;;;7389621;19;20015;-79
2024/01/03 07:00:38;;;;;;;9.80;2.03;;;;;;;;;;7386000;19;19994;-79
2024/01/03 07:03:04;;;;;;;9.77;2.20;;;;;;;;;;7404734;19;19987;-79
2024/01/03 07:05:29;;;;;;;8.30;2.33;;;;;;;;;;7420935;19;20009;-79
2024/01/03 07:07:56;;;;;;;6.65;2.22;;;;;;;;;;7390967;19;19990;-78
2024/01/03 07:10:22;;;;;;;16.95;3.28;;;;;;;;;;7396802;19;20022;-78
2024/01/03 07:12:54;;;;;;;12.52;2.30;;;;;;;;;;7397556;19;19995;-79
2024/01/03 07:15:20;;;;;;;;;;;;;;;;;;7396490;19;20006;-77
2024/01/03 07:17:47;;;;;;;15.57;2.33;;;;;;;;;;7417939;19;19920;-79
2024/01/03 07:20:12;;;;;;;13.73;2.28;;;;;;;;;;7394241;19;20008;-80
2024/01/03 07:22:37;;;;;;;13.35;2.40;;;;;;;;;;7398231;19;20006;-78
2024/01/03 07:25:03;;;;;;;9.30;1.95;;;;;;;;;;7401654;19;20020;-79
2024/01/03 07:27:29;;;;;;;12.13;2.17;;;;;;;;;;7409894;19;20023;-78
2024/01/03 07:29:54;;;;;;;11.70;2.65;;;;;;;;;;7419718;19;20026;-78
2024/01/03 07:32:20;;;;;;;17.02;3.13;;;;;;;;;;7389796;19;19998;-78
2024/01/03 07:34:45;;;;;;;7.13;2.03;;;;;;;;;;7388401;19;20027;-79
2024/01/03 07:37:11;;;;;;;17.55;2.47;;;;;;;;;;7377717;19;20001;-79
2024/01/03 07:39:37;;;;;;;10.05;2.00;;;;;;;;;;7388444;19;20004;-80
2024/01/03 07:42:06;;;;;;;7.88;2.03;;;;;;;;;;7395387;19;20003;-79
2024/01/03 07:44:38;;;;;;;9.38;1.85;;;;;;;;;;7420770;19;20511;-79
2024/01/03 07:47:03;;;;;;;11.70;2.03;;;;;;;;;;7385407;19;20006;-78
2024/01/03 07:49:30;;;;;;;9.68;2.30;;;;;;;;;;7388629;19;20081;-78
2024/01/03 07:51:56;;;;;;;10.55;1.63;;;;;;;;;;7388706;19;20001;-78
2024/01/03 07:54:24;;;;;;;5.63;1.80;;;;;;;;;;7387398;19;20003;-78
2024/01/03 07:56:50;;;;;;;11.20;2.25;;;;;;;;;;7412157;19;20004;-78
2024/01/03 07:59:15;;;;;;;7.35;1.55;;;;;;;;;;7387113;19;19995;-79
2024/01/03 08:01:41;;;;;;;5.35;1.60;;;;;;;;;;7385909;19;19998;-78
2024/01/03 08:04:06;;;;;;;7.07;1.60;;;;;;;;;;7388539;19;20034;-78
2024/01/03 08:06:32;;;;;;;8.88;2.25;;;;;;;;;;7388538;19;20022;-78
2024/01/03 08:08:57;;;;;;;6.63;1.55;;;;;;;;;;7393665;19;19995;-78
2024/01/03 08:11:23;;;;;;;5.35;1.30;;;;;;;;;;7411360;19;19995;-78
2024/01/03 08:13:51;;;;;;;5.35;1.58;;;;;;;;;;7389672;19;20093;-79
2024/01/03 08:16:16;;;;;;;6.03;1.50;;;;;;;;;;7387080;19;20010;-78
2024/01/03 08:18:44;;;;;;;6.78;1.50;;;;;;;;;;7385245;19;20002;-79
2024/01/03 08:21:10;;;;;;;8.20;1.65;;;;;;;;;;7388408;19;20019;-79
2024/01/03 08:23:36;;;;;;;6.70;1.80;;;;;;;;;;7411112;19;20058;-78
2024/01/03 08:26:09;;;;;;;5.82;1.65;;;;;;;;;;7391769;19;20003;-79
2024/01/03 08:28:40;;;;;;;6.45;1.50;;;;;;;;;;7391120;19;20005;-79
2024/01/03 08:31:05;;;;;;;5.20;1.38;;;;;;;;;;7391486;19;20003;-78
2024/01/03 08:33:36;;;;;;;5.53;1.30;;;;;;;;;;7392463;19;20005;-78
2024/01/03 08:36:03;;;;;;;8.10;1.60;;;;;;;;;;7384524;19;20015;-78
2024/01/03 08:38:28;;;;;;;6.38;1.70;;;;;;;;;;7405050;19;20038;-78
2024/01/03 08:41:17;;;;;;;5.00;2.08;;;;;;;;;;7385831;19;20006;-78
2024/01/03 08:43:43;;;;;;;5.20;1.63;;;;;;;;;;7384988;19;20026;-78
2024/01/03 08:46:10;;;;;;;8.40;1.70;;;;;;;;;;7399658;19;20002;-78
2024/01/03 08:48:42;;;;;;;5.53;1.70;;;;;;;;;;7388263;19;20006;-77
2024/01/03 08:51:12;;;;;;;5.63;1.50;;;;;;;;;;7382525;19;20006;-77
2024/01/03 08:53:41;;;;;;;7.67;2.00;;;;;;;;;;7405165;19;20051;-78
2024/01/03 08:56:13;;;;;;;6.13;1.88;;;;;;;;;;7384926;19;20274;-78
2024/01/03 08:58:40;;;;;;;5.60;1.27;;;;;;;;;;7382272;19;20118;-78
2024/01/03 09:01:05;;;;;;;5.25;1.50;;;;;;;;;;7383062;19;20033;-77
2024/01/03 09:03:31;;;;;;;5.45;1.58;;;;;;;;;;7384149;19;20014;-77
2024/01/03 09:05:58;;;;;;;4.93;1.48;;;;;;;;;;7396393;19;20019;-78
2024/01/03 09:08:23;;;;;;;3.72;1.30;;;;;;;;;;7408305;19;20003;-78
2024/01/03 09:10:48;;;;;;;5.85;1.75;;;;;;;;;;7385256;19;20017;-77
2024/01/03 09:13:14;;;;;;;3.65;1.25;;;;;;;;;;7391481;19;20357;-78
2024/01/03 09:15:39;;;;;;;7.75;1.95;;;;;;;;;;7383341;19;20030;-78
2024/01/03 09:18:05;;;;;;;4.25;1.48;;;;;;;;;;7379618;19;20010;-77
2024/01/03 09:20:30;;;;;;;4.97;1.73;;;;;;;;;;7403961;19;20103;-77
2024/01/03 09:22:55;;;;;;;5.22;1.38;;;;;;;;;;7385048;19;20006;-77
2024/01/03 09:25:21;;;;;;;4.25;1.30;;;;;;;;;;7384026;19;20021;-77
2024/01/03 09:27:46;;;;;;;4.30;1.30;;;;;;;;;;7384937;19;20028;-77
2024/01/03 09:30:12;;;;;;;5.70;1.50;;;;;;;;;;7386000;19;20018;-77
2024/01/03 09:32:37;;;;;;;4.13;1.45;;;;;;;;;;7409154;19;19998;-77
2024/01/03 09:35:03;;;;;;;3.95;1.60;;;;;;;;;;7393537;19;20007;-77
2024/01/03 09:37:29;;;;;;;6.05;1.50;;;;;;;;;;7389828;19;20010;-77
2024/01/03 09:39:55;;;;;;;4.75;1.40;;;;;;;;;;7388617;19;20014;-77
2024/01/03 09:42:21;;;;;;;12.32;1.83;;;;;;;;;;7383860;19;20345;-77
2024/01/03 09:44:47;;;;;;;6.55;1.80;;;;;;;;;;7406729;19;20003;-77
2024/01/03 09:47:12;;;;;;;5.90;1.70;;;;;;;;;;7391293;19;20002;-76
2024/01/03 09:49:38;;;;;;;5.07;1.73;;;;;;;;;;7390497;19;20035;-77
2024/01/03 09:52:07;;;;;;;8.48;1.67;;;;;;;;;;7391441;19;20102;-76
2024/01/03 09:54:33;;;;;;;7.28;1.70;;;;;;;;;;7387068;19;20014;-77
2024/01/03 09:56:59;;;;;;;6.22;1.70;;;;;;;;;;7387495;19;20002;-76
2024/01/03 09:59:26;;;;;;;6.47;1.80;;;;;;;;;;7407823;19;19990;-76
2024/01/03 10:01:56;;;;;;;6.05;1.58;;;;;;;;;;7389313;19;20025;-76
2024/01/03 10:04:21;;;;;;;6.22;1.83;;;;;;;;;;7393281;19;20405;-76
2024/01/03 10:06:54;;;;;;;7.82;1.75;;;;;;;;;;7390245;19;20007;-76
2024/01/03 10:09:21;;;;;;;7.43;1.70;;;;;;;;;;7390932;19;20042;-77
2024/01/03 10:11:50;;;;;;;4.65;1.48;;;;;;;;;;7413904;19;20006;-77
2024/01/03 10:14:17;;;;;;;5.82;1.80;;;;;;;;;;7385526;19;20007;-77
2024/01/03 10:16:47;;;;;;;7.97;2.08;;;;;;;;;;7389904;19;20002;-77
2024/01/03 10:19:15;;;;;;;8.90;2.10;;;;;;;;;;7388313;19;20006;-77
2024/01/03 10:21:52;;;;;;;8.20;1.90;;;;;;;;;;7384203;19;20002;-77
2024/01/03 10:24:19;;;;;;;7.00;1.85;;;;;;;;;;7381075;19;20000;-77
2024/01/03 10:26:45;;;;;;;5.95;1.80;;;;;;;;;;7406111;19;20487;-77
2024/01/03 10:29:16;;;;;;;7.40;1.60;;;;;;;;;;7380796;19;20002;-77
2024/01/03 10:31:43;;;;;;;9.35;2.00;;;;;;;;;;7378536;19;20006;-77
2024/01/03 10:34:15;;;;;;;5.72;1.88;;;;;;;;;;7378783;19;19994;-77
2024/01/03 10:36:42;;;;;;;8.68;1.70;;;;;;;;;;7377939;19;20002;-77
2024/01/03 10:39:13;;;;;;;8.48;3.72;;;;;;;;;;7380419;19;20007;-77
2024/01/03 10:41:40;;;;;;;7.88;1.88;;;;;;;;;;7402652;19;19997;-77
2024/01/03 10:44:06;;;;;;;7.22;2.05;;;;;;;;;;7375744;19;19995;-77
2024/01/03 10:46:31;;;;;;;8.88;1.80;;;;;;;;;;7378770;19;20006;-77
2024/01/03 10:48:57;;;;;;;8.50;2.03;;;;;;;;;;7377027;19;20017;-77
2024/01/03 10:51:26;;;;;;;8.30;2.00;;;;;;;;;;7377817;19;20040;-77
2024/01/03 10:53:54;;;;;;;8.00;1.90;;;;;;;;;;7397370;19;20026;-77
2024/01/03 10:56:20;;;;;;;8.75;1.85;;;;;;;;;;7374133;19;19999;-77
2024/01/03 10:58:46;;;;;;;8.35;2.25;;;;;;;;;;7377153;19;20455;-77
2024/01/03 11:01:34;;;;;;;9.07;1.95;;;;;;;;;;7387614;19;20013;-78
2024/01/03 11:04:16;;;;;;;7.88;2.28;;;;;;;;;;7375510;19;20010;-77
2024/01/03 11:06:53;;;;;;;8.95;1.88;;;;;;;;;;7379244;19;19998;-78
2024/01/03 11:09:19;;;;;;;5.15;1.52;;;;;;;;;;7374990;19;20010;-77
2024/01/03 11:11:44;;;;;;;6.55;1.55;;;;;;;;;;7393732;19;20005;-78
2024/01/03 11:14:19;;;;;;;10.35;1.67;;;;;;;;;;7380846;19;20012;-78
2024/01/03 11:16:45;;;;;;;7.53;2.22;;;;;;;;;;7376525;19;20007;-76
2024/01/03 11:19:10;;;;;;;6.10;1.70;;;;;;;;;;7372297;19;20006;-77
2024/01/03 11:21:37;;;;;;;8.55;2.10;;;;;;;;;;7379803;19;20003;-78
2024/01/03 11:24:02;;;;;;;9.27;2.08;;;;;;;;;;7374853;19;20019;-77
2024/01/03 11:26:53;;;;;;;8.40;2.00;;;;;;;;;;7398604;19;19998;-77
2024/01/03 11:29:48;;;;;;;8.67;1.80;;;;;;;;;;7394877;19;20002;-77
2024/01/03 11:32:27;;;;;;;8.48;1.95;;;;;;;;;;7380199;19;20247;-77
2024/01/03 11:34:53;;;;;;;9.40;2.13;;;;;;;;;;7373750;19;20591;-77
2024/01/03 11:37:18;;;;;;;9.52;2.00;;;;;;;;;;7379966;19;20054;-77
2024/01/03 11:39:46;;;;;;;6.68;1.73;;;;;;;;;;7386313;19;19995;-77
2024/01/03 11:42:18;;;;;;;10.85;2.38;;;;;;;;;;7368019;19;20070;-77
2024/01/03 11:44:44;;;;;;;7.78;2.00;;;;;;;;;;7401425;19;19991;-77
2024/01/03 11:47:10;;;;;;;11.27;2.15;;;;;;;;;;7381192;19;20002;-77
2024/01/03 11:49:36;;;;;;;9.30;1.85;;;;;;;;;;7379727;19;20010;-77
2024/01/03 11:52:02;;;;;;;6.65;1.83;;;;;;;;;;7379744;19;20007;-77
2024/01/03 11:54:27;;;;;;;8.20;2.08;;;;;;;;;;7380371;19;20028;-77
2024/01/03 11:56:56;;;;;;;10.95;2.33;;;;;;;;;;7401518;19;20001;-77
2024/01/03 11:59:22;;;;;;;7.45;2.33;;;;;;;;;;7383771;19;20027;-78
2024/01/03 12:01:59;;;;;;;7.90;1.73;;;;;;;;;;7372998;19;20450;-77
2024/01/03 12:04:26;;;;;;;7.30;1.70;;;;;;;;;;7379477;19;20017;-77
2024/01/03 12:06:58;;;;;;;6.13;1.65;;;;;;;;;;7387634;19;20617;-77
2024/01/03 12:09:29;;;;;;;5.68;1.45;;;;;;;;;;7378646;19;20010;-77
2024/01/03 12:11:55;;;;;;;9.30;1.70;;;;;;;;;;7404000;19;19990;-77
2024/01/03 12:14:21;;;;;;;7.07;2.20;;;;;;;;;;7372997;19;20027;-77
2024/01/03 12:16:54;;;;;;;8.93;1.80;;;;;;;;;;7383170;19;20094;-77
2024/01/03 12:19:27;;;;;;;11.98;2.22;;;;;;;;;;7387037;19;20006;-77
2024/01/03 12:22:01;;;;;;;9.40;2.05;;;;;;;;;;7380219;19;20002;-77
2024/01/03 12:24:42;;;;;;;9.15;2.00;;;;;;;;;;7384393;19;20007;-77
2024/01/03 12:27:08;;;;;;;11.70;2.03;;;;;;;;;;7384157;19;19996;-77
2024/01/03 12:29:34;;;;;;;9.30;1.95;;;;;;;;;;7409731;19;20327;-77
2024/01/03 12:32:16;;;;;;;8.23;1.92;;;;;;;;;;7390113;19;19998;-77
2024/01/03 12:34:41;;;;;;;10.40;2.20;;;;;;;;;;7389833;19;20479;-77
2024/01/03 12:37:07;;;;;;;7.88;2.33;;;;;;;;;;7385907;19;20287;-77
2024/01/03 12:39:34;;;;;;;10.02;2.05;;;;;;;;;;7385251;19;20010;-77
2024/01/03 12:42:01;;;;;;;11.00;2.30;;;;;;;;;;7388044;19;20003;-77
2024/01/03 12:44:27;;;;;;;10.48;2.03;;;;;;;;;;7408813;19;20022;-77
2024/01/03 12:46:52;;;;;;;9.02;2.10;;;;;;;;;;7388098;19;20014;-77
2024/01/03 12:49:17;;;;;;;9.10;1.88;;;;;;;;;;7392604;19;20589;-77
2024/01/03 12:51:43;;;;;;;11.82;2.25;;;;;;;;;;7385709;19;20002;-77
2024/01/03 12:54:08;;;;;;;7.85;1.63;;;;;;;;;;7372751;19;20010;-77
2024/01/03 12:56:33;;;;;;;6.82;1.70;;;;;;;;;;7394630;19;19999;-77
2024/01/03 12:58:59;;;;;;;14.98;2.25;;;;;;;;;;7370212;19;20018;-77
2024/01/03 13:01:24;;;;;;;9.18;1.95;;;;;;;;;;7372177;19;20068;-77
2024/01/03 13:03:49;;;;;;;8.18;2.10;;;;;;;;;;7370545;19;20038;-77
2024/01/03 13:06:15;;;;;;;8.05;1.83;;;;;;;;;;7371728;19;20548;-78
2024/01/03 13:08:40;;;;;;;14.88;2.97;;;;;;;;;;7394680;19;20010;-77
2024/01/03 13:11:05;;;;;;;9.68;2.00;;;;;;;;;;7371875;19;20010;-77
2024/01/03 13:13:31;;;;;;;11.95;2.30;;;;;;;;;;7373015;19;20006;-77
2024/01/03 13:15:56;;;;;;;8.85;1.85;;;;;;;;;;7375871;19;20070;-77
2024/01/03 13:18:21;;;;;;;10.18;2.13;;;;;;;;;;7381213;19;20795;-77
2024/01/03 13:20:47;;;;;;;14.18;2.15;;;;;;;;;;7397266;19;20010;-77
2024/01/03 13:23:12;;;;;;;10.52;1.90;;;;;;;;;;7381876;19;20179;-78
2024/01/03 13:25:37;;;;;;;9.00;2.50;;;;;;;;;;7384207;19;20006;-77
2024/01/03 13:28:03;;;;;;;8.43;1.80;;;;;;;;;;7380778;19;20042;-77
2024/01/03 13:30:28;;;;;;;8.13;1.88;;;;;;;;;;7373163;19;20005;-71
2024/01/03 13:32:54;;;;;;;8.52;1.88;;;;;;;;;;7404364;19;20081;-77
2024/01/03 13:35:19;;;;;;;7.50;1.65;;;;;;;;;;7390225;19;20010;-77
2024/01/03 13:37:45;;;;;;;8.05;1.70;;;;;;;;;;7387317;19;20451;-77
2024/01/03 13:40:11;;;;;;;4.95;1.58;;;;;;;;;;7385765;19;20010;-77
2024/01/03 13:42:36;;;;;;;5.68;1.50;;;;;;;;;;7391889;19;20003;-78
2024/01/03 13:45:01;;;;;;;5.70;1.33;;;;;;;;;;7395712;19;20378;-78
2024/01/03 13:47:27;;;;;;;6.32;1.45;;;;;;;;;;7416206;19;20448;-77
2024/01/03 13:49:52;;;;;;;7.75;1.60;;;;;;;;;;7394845;19;20019;-77
2024/01/03 13:52:19;;;;;;;2.60;1.00;;;;;;;;;;7394666;19;20010;-78
2024/01/03 13:54:44;;;;;;;3.75;1.15;;;;;;;;;;7381629;19;20032;-78
2024/01/03 13:57:09;;;;;;;6.72;1.50;;;;;;;;;;7385583;19;20026;-78
2024/01/03 13:59:35;;;;;;;5.10;1.38;;;;;;;;;;7401338;19;20456;-78
2024/01/03 14:02:00;;;;;;;4.82;1.20;;;;;;;;;;7381837;19;20033;-78
2024/01/03 14:04:26;;;;;;;4.18;1.33;;;;;;;;;;7378478;19;19998;-78
2024/01/03 14:06:51;;;;;;;5.68;1.40;;;;;;;;;;7382238;19;20071;-78
2024/01/03 14:09:16;;;;;;;5.63;1.58;;;;;;;;;;7380411;19;20699;-78
2024/01/03 14:11:42;;;;;;;5.20;1.52;;;;;;;;;;7402436;19;20338;-78
2024/01/03 14:14:07;;;;;;;2.55;1.10;;;;;;;;;;7383022;19;20013;-78
2024/01/03 14:16:32;;;;;;;3.70;1.00;;;;;;;;;;7383401;19;20046;-78
2024/01/03 14:18:58;;;;;;;3.75;1.30;;;;;;;;;;7385335;19;20010;-78
2024/01/03 14:21:23;;;;;;;1.08;0.85;;;;;;;;;;7384997;19;20713;-77
2024/01/03 14:23:52;;;;;;;3.85;1.05;;;;;;;;;;7403493;19;20106;-77
2024/01/03 14:26:19;;;;;;;4.15;1.20;;;;;;;;;;7382177;19;20018;-80
2024/01/03 14:28:44;;;;;;;4.60;1.25;;;;;;;;;;7385669;19;20010;-77
2024/01/03 14:31:10;;;;;;;6.90;1.15;;;;;;;;;;7378952;19;20408;-77
2024/01/03 14:33:35;;;;;;;3.65;1.02;;;;;;;;;;7392881;19;20014;-77
2024/01/03 14:36:01;;;;;;;3.50;1.30;;;;;;;;;;7390104;19;20019;-77
2024/01/03 14:38:26;;;;;;;4.82;1.42;;;;;;;;;;7402289;19;20006;-77